Airfield :
LOGIN :

Register | Disclaimer

   EN    FR    IT 

 










Legend :    VFR   Marginal VFR   IFR   Intensive IFR   Very Intensive IFR
Visi :
Ceiling :
>= 8 km
>= 3000ft
5 to 8 km
1000 to 3000 ft
1500m to 5 km
500 to 1000 ft
800 to 1500m
200 to 500 ft
< 800m
< 200 ft
Symbols :   Thunderstorms  Fog  Heavy snow  Heavy precipitations  Wind > 20 kt
SIGMETs :     Misc.  Thunderstorms  Icing  Turbulence  Mountain Waves  Volcanic Ashes






- Airport Elevation : 681 ft
- IATA code : LBA


EGNM - Leeds Bradford

CURRENT METAR :
  • 082220Z 27008KT 9999 FEW013 04/03 Q0990

EXPIRED METARs :
  • 082150Z 27008KT 9999 FEW013 04/03 Q0990
  • 082120Z 26012KT 9999 FEW013 05/03 Q0989
  • 082050Z 27012KT 9999 FEW013 04/03 Q0988
  • 082020Z 25013KT 9999 FEW013 04/04 Q0988
  • 081950Z 26015KT 9999 FEW020 04/03 Q0987

TAF TAF EGNM
Valid from the 08 at 18:00 until the 09 at 18:00 UTC


081656Z 0818/0918 24015KT 9999 SCT025
TEMPO 0818/0820 26018G28KT 6000 RA SHRA BKN010
PROB30
TEMPO 0818/0820 3000 +RA +SHRA BKN006
BECMG 0820/0822 23005KT
BECMG 0900/0903 17010KT
TEMPO 0916/0918 6000 RA BKN014
ATIS : +44 113 250 9696 (x2489)



MET'MAP, your aeronautical weather chart ! - Copyright ORBIFLY December 2007 - Disclaimer

ORBIFLY MET'MAP TEAM :

Programming & Development : Alexandra Zaïnal
Concept & original design : Baudouin d'Aumeries
Assistance for programming : Marc-Olivier Méhu
Technical & hardware support : Manuel Goepfert

Contact : metmap@orbifly.com




SOURCES & CREDITS :

   NOAA